sensor_id;sensor_type;location;lat;lon;timestamp;pressure;altitude;pressure_sealevel;temperature;humidity
13241;BME280;6687;47.790;7.322;2023-05-16T05:24:47;98758.19;;;12.76;100.00
13241;BME280;6687;47.790;7.322;2023-05-16T05:27:14;98760.72;;;12.79;100.00
13241;BME280;6687;47.790;7.322;2023-05-16T05:29:41;98755.72;;;12.64;100.00
13241;BME280;6687;47.790;7.322;2023-05-16T05:32:08;98764.25;;;12.75;100.00
13241;BME280;6687;47.790;7.322;2023-05-16T05:34:34;98763.44;;;12.68;100.00
13241;BME280;6687;47.790;7.322;2023-05-16T05:37:01;98760.78;;;12.76;100.00
13241;BME280;6687;47.790;7.322;2023-05-16T05:39:28;98768.38;;;12.93;100.00
13241;BME280;6687;47.790;7.322;2023-05-16T05:41:56;98763.19;;;12.94;100.00
13241;BME280;6687;47.790;7.322;2023-05-16T05:44:23;98754.34;;;13.09;100.00
13241;BME280;6687;47.790;7.322;2023-05-16T05:46:49;98759.50;;;13.14;100.00
13241;BME280;6687;47.790;7.322;2023-05-16T05:49:16;98765.00;;;12.86;100.00
13241;BME280;6687;47.790;7.322;2023-05-16T05:51:43;98765.16;;;12.71;100.00
13241;BME280;6687;47.790;7.322;2023-05-16T05:54:10;98766.38;;;13.20;100.00
13241;BME280;6687;47.790;7.322;2023-05-16T05:56:36;98769.75;;;13.26;100.00
13241;BME280;6687;47.790;7.322;2023-05-16T05:59:04;98767.91;;;13.39;100.00
13241;BME280;6687;47.790;7.322;2023-05-16T06:01:31;98767.22;;;13.20;100.00
13241;BME280;6687;47.790;7.322;2023-05-16T06:03:58;98773.97;;;13.37;100.00
13241;BME280;6687;47.790;7.322;2023-05-16T06:06:25;98769.44;;;13.52;100.00
13241;BME280;6687;47.790;7.322;2023-05-16T06:08:51;98771.47;;;13.30;100.00
13241;BME280;6687;47.790;7.322;2023-05-16T06:11:18;98772.81;;;13.61;100.00
13241;BME280;6687;47.790;7.322;2023-05-16T06:13:45;98785.81;;;13.62;100.00
13241;BME280;6687;47.790;7.322;2023-05-16T06:16:13;98784.00;;;13.67;100.00
13241;BME280;6687;47.790;7.322;2023-05-16T06:18:40;98785.78;;;13.65;100.00
13241;BME280;6687;47.790;7.322;2023-05-16T06:21:07;98792.34;;;13.23;100.00
13241;BME280;6687;47.790;7.322;2023-05-16T06:23:34;98787.50;;;13.66;100.00
13241;BME280;6687;47.790;7.322;2023-05-16T06:26:01;98798.72;;;12.96;100.00
13241;BME280;6687;47.790;7.322;2023-05-16T06:28:28;98797.53;;;13.23;100.00
13241;BME280;6687;47.790;7.322;2023-05-16T06:30:56;98803.16;;;12.86;100.00
13241;BME280;6687;47.790;7.322;2023-05-16T06:33:24;98799.88;;;13.49;100.00
13241;BME280;6687;47.790;7.322;2023-05-16T06:35:51;98792.97;;;13.45;100.00
13241;BME280;6687;47.790;7.322;2023-05-16T06:38:18;98790.63;;;13.23;99.97
13241;BME280;6687;47.790;7.322;2023-05-16T06:40:45;98792.78;;;13.60;100.00
13241;BME280;6687;47.790;7.322;2023-05-16T06:43:12;98793.22;;;13.23;100.00
13241;BME280;6687;47.790;7.322;2023-05-16T06:45:38;98802.13;;;13.01;100.00
13241;BME280;6687;47.790;7.322;2023-05-16T06:48:06;98797.59;;;13.17;100.00
13241;BME280;6687;47.790;7.322;2023-05-16T06:50:34;98790.25;;;13.54;98.77
13241;BME280;6687;47.790;7.322;2023-05-16T06:53:01;98791.28;;;13.41;98.54
13241;BME280;6687;47.790;7.322;2023-05-16T06:55:29;98801.50;;;13.56;98.56
13241;BME280;6687;47.790;7.322;2023-05-16T06:57:55;98800.66;;;13.56;97.80
13241;BME280;6687;47.790;7.322;2023-05-16T07:00:22;98801.53;;;12.76;96.97
13241;BME280;6687;47.790;7.322;2023-05-16T07:02:49;98799.16;;;13.38;96.55
13241;BME280;6687;47.790;7.322;2023-05-16T07:05:16;98802.25;;;13.67;97.21
13241;BME280;6687;47.790;7.322;2023-05-16T07:07:44;98807.22;;;13.13;98.72
13241;BME280;6687;47.790;7.322;2023-05-16T07:10:11;98804.50;;;13.21;98.15
13241;BME280;6687;47.790;7.322;2023-05-16T07:12:40;98798.38;;;13.26;97.46
13241;BME280;6687;47.790;7.322;2023-05-16T07:15:08;98804.56;;;13.16;96.52
13241;BME280;6687;47.790;7.322;2023-05-16T07:17:35;98803.63;;;13.23;98.64
13241;BME280;6687;47.790;7.322;2023-05-16T07:20:02;98809.50;;;13.41;97.85
13241;BME280;6687;47.790;7.322;2023-05-16T07:22:29;98806.03;;;13.40;96.85
13241;BME280;6687;47.790;7.322;2023-05-16T07:24:57;98808.59;;;13.45;97.42
13241;BME280;6687;47.790;7.322;2023-05-16T07:27:25;98818.56;;;13.06;98.29
13241;BME280;6687;47.790;7.322;2023-05-16T07:29:52;98815.88;;;13.12;98.96
13241;BME280;6687;47.790;7.322;2023-05-16T07:32:18;98812.50;;;13.04;98.77
13241;BME280;6687;47.790;7.322;2023-05-16T07:34:45;98813.38;;;13.03;99.28
13241;BME280;6687;47.790;7.322;2023-05-16T07:37:12;98818.59;;;13.01;99.78
13241;BME280;6687;47.790;7.322;2023-05-16T07:39:40;98818.34;;;13.23;98.83
13241;BME280;6687;47.790;7.322;2023-05-16T07:42:08;98818.31;;;13.27;98.54
13241;BME280;6687;47.790;7.322;2023-05-16T07:44:35;98828.75;;;13.24;98.39
13241;BME280;6687;47.790;7.322;2023-05-16T07:47:02;98831.34;;;13.23;98.78
13241;BME280;6687;47.790;7.322;2023-05-16T07:49:29;98827.97;;;13.19;98.71
13241;BME280;6687;47.790;7.322;2023-05-16T07:51:55;98831.75;;;12.84;98.94
13241;BME280;6687;47.790;7.322;2023-05-16T07:54:22;98840.19;;;13.09;99.04
13241;BME280;6687;47.790;7.322;2023-05-16T07:56:49;98833.84;;;13.38;98.14
13241;BME280;6687;47.790;7.322;2023-05-16T07:59:17;98835.19;;;12.89;98.83
13241;BME280;6687;47.790;7.322;2023-05-16T08:01:44;98837.75;;;12.94;99.29
13241;BME280;6687;47.790;7.322;2023-05-16T08:04:10;98838.50;;;13.04;99.75
13241;BME280;6687;47.790;7.322;2023-05-16T08:06:37;98841.50;;;12.62;100.00
13241;BME280;6687;47.790;7.322;2023-05-16T08:09:04;98848.25;;;12.83;100.00
13241;BME280;6687;47.790;7.322;2023-05-16T08:11:30;98843.84;;;12.88;100.00
13241;BME280;6687;47.790;7.322;2023-05-16T08:13:57;98845.72;;;12.74;100.00
13241;BME280;6687;47.790;7.322;2023-05-16T08:16:25;98840.56;;;12.69;100.00
13241;BME280;6687;47.790;7.322;2023-05-16T08:18:52;98841.19;;;12.93;100.00
13241;BME280;6687;47.790;7.322;2023-05-16T08:21:19;98842.09;;;12.92;100.00
13241;BME280;6687;47.790;7.322;2023-05-16T08:23:46;98847.13;;;13.09;100.00
13241;BME280;6687;47.790;7.322;2023-05-16T08:26:12;98847.22;;;13.00;100.00
13241;BME280;6687;47.790;7.322;2023-05-16T08:28:39;98852.03;;;12.42;100.00
13241;BME280;6687;47.790;7.322;2023-05-16T08:31:07;98855.09;;;12.89;100.00
13241;BME280;6687;47.790;7.322;2023-05-16T08:33:35;98855.53;;;12.38;100.00
13241;BME280;6687;47.790;7.322;2023-05-16T08:36:02;98856.88;;;12.87;100.00
13241;BME280;6687;47.790;7.322;2023-05-16T08:38:29;98852.91;;;12.44;100.00
13241;BME280;6687;47.790;7.322;2023-05-16T08:40:56;98854.53;;;12.54;100.00
13241;BME280;6687;47.790;7.322;2023-05-16T08:43:22;98861.94;;;13.02;100.00
13241;BME280;6687;47.790;7.322;2023-05-16T08:45:49;98865.28;;;13.15;100.00
13241;BME280;6687;47.790;7.322;2023-05-16T08:48:20;98865.28;;;13.13;100.00
13241;BME280;6687;47.790;7.322;2023-05-16T08:50:49;98866.09;;;13.20;100.00
13241;BME280;6687;47.790;7.322;2023-05-16T08:53:21;98871.88;;;12.52;100.00
13241;BME280;6687;47.790;7.322;2023-05-16T08:55:48;98869.22;;;12.62;100.00
13241;BME280;6687;47.790;7.322;2023-05-16T08:58:16;98867.13;;;13.04;100.00
13241;BME280;6687;47.790;7.322;2023-05-16T09:00:44;98868.09;;;12.90;100.00
13241;BME280;6687;47.790;7.322;2023-05-16T09:03:11;98865.59;;;12.81;100.00
13241;BME280;6687;47.790;7.322;2023-05-16T09:05:38;98868.69;;;13.20;100.00
13241;BME280;6687;47.790;7.322;2023-05-16T09:08:07;98870.63;;;13.00;100.00
13241;BME280;6687;47.790;7.322;2023-05-16T09:10:34;98879.41;;;12.86;100.00
13241;BME280;6687;47.790;7.322;2023-05-16T09:13:00;98881.16;;;12.86;100.00
13241;BME280;6687;47.790;7.322;2023-05-16T09:15:30;98882.19;;;12.68;100.00
13241;BME280;6687;47.790;7.322;2023-05-16T09:17:59;98882.19;;;12.63;100.00
13241;BME280;6687;47.790;7.322;2023-05-16T09:20:26;98885.63;;;12.71;100.00
13241;BME280;6687;47.790;7.322;2023-05-16T09:22:54;98888.28;;;12.62;100.00
13241;BME280;6687;47.790;7.322;2023-05-16T09:25:24;98879.13;;;12.01;100.00
13241;BME280;6687;47.790;7.322;2023-05-16T09:27:52;98878.72;;;12.63;100.00
13241;BME280;6687;47.790;7.322;2023-05-16T09:30:21;98877.13;;;12.43;100.00
13241;BME280;6687;47.790;7.322;2023-05-16T09:32:50;98878.78;;;12.60;100.00
13241;BME280;6687;47.790;7.322;2023-05-16T09:35:18;98888.78;;;13.04;100.00
13241;BME280;6687;47.790;7.322;2023-05-16T09:37:45;98895.91;;;12.84;100.00
13241;BME280;6687;47.790;7.322;2023-05-16T09:40:12;98900.34;;;12.71;100.00
13241;BME280;6687;47.790;7.322;2023-05-16T09:42:41;98891.31;;;13.15;100.00
13241;BME280;6687;47.790;7.322;2023-05-16T09:45:11;98893.19;;;12.94;100.00
13241;BME280;6687;47.790;7.322;2023-05-16T09:47:38;98892.47;;;12.80;100.00
13241;BME280;6687;47.790;7.322;2023-05-16T09:50:12;98899.44;;;12.75;100.00
13241;BME280;6687;47.790;7.322;2023-05-16T09:52:39;98895.84;;;12.91;100.00
13241;BME280;6687;47.790;7.322;2023-05-16T09:55:06;98894.16;;;12.87;100.00
13241;BME280;6687;47.790;7.322;2023-05-16T09:57:36;98892.34;;;12.92;100.00
13241;BME280;6687;47.790;7.322;2023-05-16T10:00:06;98887.97;;;12.99;100.00
13241;BME280;6687;47.790;7.322;2023-05-16T10:02:37;98883.59;;;13.03;100.00
13241;BME280;6687;47.790;7.322;2023-05-16T10:05:05;98888.53;;;13.33;100.00
13241;BME280;6687;47.790;7.322;2023-05-16T10:07:32;98886.56;;;13.54;100.00
13241;BME280;6687;47.790;7.322;2023-05-16T10:10:00;98888.78;;;13.03;100.00
13241;BME280;6687;47.790;7.322;2023-05-16T10:12:32;98897.50;;;12.99;100.00
13241;BME280;6687;47.790;7.322;2023-05-16T10:14:59;98895.47;;;13.28;100.00
13241;BME280;6687;47.790;7.322;2023-05-16T10:17:30;98893.94;;;13.09;100.00
13241;BME280;6687;47.790;7.322;2023-05-16T10:20:00;98896.66;;;12.95;100.00
13241;BME280;6687;47.790;7.322;2023-05-16T10:22:28;98894.84;;;13.05;100.00
13241;BME280;6687;47.790;7.322;2023-05-16T10:25:02;98895.06;;;12.82;100.00
13241;BME280;6687;47.790;7.322;2023-05-16T10:27:30;98890.41;;;13.19;100.00
13241;BME280;6687;47.790;7.322;2023-05-16T10:29:57;98897.97;;;13.45;100.00
13241;BME280;6687;47.790;7.322;2023-05-16T10:32:25;98897.88;;;13.53;99.42
13241;BME280;6687;47.790;7.322;2023-05-16T10:34:54;98895.56;;;13.22;98.88
13241;BME280;6687;47.790;7.322;2023-05-16T10:37:22;98902.41;;;13.32;98.99
13241;BME280;6687;47.790;7.322;2023-05-16T10:39:50;98901.75;;;13.09;97.84
13241;BME280;6687;47.790;7.322;2023-05-16T10:42:18;98904.16;;;13.30;96.79
13241;BME280;6687;47.790;7.322;2023-05-16T10:44:44;98908.06;;;12.83;95.13
13241;BME280;6687;47.790;7.322;2023-05-16T10:47:11;98905.41;;;12.85;95.26
13241;BME280;6687;47.790;7.322;2023-05-16T10:49:40;98916.88;;;12.61;94.23
13241;BME280;6687;47.790;7.322;2023-05-16T10:52:09;98899.97;;;13.12;94.75
13241;BME280;6687;47.790;7.322;2023-05-16T10:54:37;98906.88;;;13.18;93.05
13241;BME280;6687;47.790;7.322;2023-05-16T10:57:09;98914.75;;;13.09;91.98
13241;BME280;6687;47.790;7.322;2023-05-16T10:59:41;98910.66;;;12.80;92.03
13241;BME280;6687;47.790;7.322;2023-05-16T11:02:21;98916.50;;;13.10;92.39
13241;BME280;6687;47.790;7.322;2023-05-16T11:04:49;98912.19;;;13.03;92.14
13241;BME280;6687;47.790;7.322;2023-05-16T11:07:19;98914.00;;;12.94;92.25
13241;BME280;6687;47.790;7.322;2023-05-16T11:10:01;98912.56;;;12.58;93.21
13241;BME280;6687;47.790;7.322;2023-05-16T11:12:44;98922.88;;;12.69;91.77
13241;BME280;6687;47.790;7.322;2023-05-16T11:15:20;98924.56;;;12.78;91.19
13241;BME280;6687;47.790;7.322;2023-05-16T11:17:47;98923.72;;;12.76;93.27
13241;BME280;6687;47.790;7.322;2023-05-16T11:20:29;98929.66;;;12.88;91.10
13241;BME280;6687;47.790;7.322;2023-05-16T11:23:23;98934.03;;;12.86;91.95
13241;BME280;6687;47.790;7.322;2023-05-16T11:25:53;98915.88;;;12.79;91.71
13241;BME280;6687;47.790;7.322;2023-05-16T11:28:21;98929.78;;;12.74;91.41
13241;BME280;6687;47.790;7.322;2023-05-16T11:30:50;98928.72;;;12.99;90.82
13241;BME280;6687;47.790;7.322;2023-05-16T11:33:19;98930.69;;;12.69;90.94
13241;BME280;6687;47.790;7.322;2023-05-16T11:35:59;98941.78;;;12.91;91.26
13241;BME280;6687;47.790;7.322;2023-05-16T11:38:30;98940.13;;;12.81;90.40
13241;BME280;6687;47.790;7.322;2023-05-16T11:41:04;98947.91;;;12.82;89.94
13241;BME280;6687;47.790;7.322;2023-05-16T11:43:41;98943.56;;;12.86;89.88
13241;BME280;6687;47.790;7.322;2023-05-16T11:46:10;98944.38;;;12.92;89.04
13241;BME280;6687;47.790;7.322;2023-05-16T11:48:37;98939.41;;;12.62;89.80
13241;BME280;6687;47.790;7.322;2023-05-16T11:51:04;98931.13;;;13.23;90.00
13241;BME280;6687;47.790;7.322;2023-05-16T11:53:32;98937.97;;;13.35;90.75
13241;BME280;6687;47.790;7.322;2023-05-16T11:55:59;98941.28;;;13.49;88.50
13241;BME280;6687;47.790;7.322;2023-05-16T11:58:27;98937.00;;;13.44;89.04
13241;BME280;6687;47.790;7.322;2023-05-16T12:00:54;98935.41;;;13.27;90.70
13241;BME280;6687;47.790;7.322;2023-05-16T12:03:21;98926.72;;;13.31;90.53
13241;BME280;6687;47.790;7.322;2023-05-16T12:05:49;98934.03;;;12.86;92.17
13241;BME280;6687;47.790;7.322;2023-05-16T12:08:17;98936.84;;;13.59;92.61
13241;BME280;6687;47.790;7.322;2023-05-16T12:10:47;98944.03;;;13.36;92.71
13241;BME280;6687;47.790;7.322;2023-05-16T12:13:15;98945.66;;;13.46;92.59
13241;BME280;6687;47.790;7.322;2023-05-16T12:15:42;98941.53;;;13.22;93.96
13241;BME280;6687;47.790;7.322;2023-05-16T12:18:09;98949.03;;;13.57;94.16
13241;BME280;6687;47.790;7.322;2023-05-16T12:20:36;98942.16;;;13.50;94.36
13241;BME280;6687;47.790;7.322;2023-05-16T12:23:03;98946.44;;;13.54;94.76
13241;BME280;6687;47.790;7.322;2023-05-16T12:25:31;98945.56;;;13.55;94.17
13241;BME280;6687;47.790;7.322;2023-05-16T12:28:02;98947.53;;;13.31;95.22
13241;BME280;6687;47.790;7.322;2023-05-16T12:30:30;98947.28;;;13.59;93.93
13241;BME280;6687;47.790;7.322;2023-05-16T12:32:58;98955.53;;;13.95;93.62
13241;BME280;6687;47.790;7.322;2023-05-16T12:35:29;98961.00;;;13.73;92.73
13241;BME280;6687;47.790;7.322;2023-05-16T12:37:56;98959.31;;;13.66;90.99
13241;BME280;6687;47.790;7.322;2023-05-16T12:40:27;98962.97;;;13.53;90.43
13241;BME280;6687;47.790;7.322;2023-05-16T12:42:54;98971.84;;;13.24;90.02
13241;BME280;6687;47.790;7.322;2023-05-16T12:45:22;98972.06;;;12.97;90.97
13241;BME280;6687;47.790;7.322;2023-05-16T12:47:49;98974.44;;;13.24;91.88
13241;BME280;6687;47.790;7.322;2023-05-16T12:50:16;98981.13;;;13.56;91.61
13241;BME280;6687;47.790;7.322;2023-05-16T12:52:47;98977.91;;;13.28;92.66
13241;BME280;6687;47.790;7.322;2023-05-16T12:55:15;98979.50;;;13.47;90.05
13241;BME280;6687;47.790;7.322;2023-05-16T12:57:42;98970.91;;;13.39;90.33
13241;BME280;6687;47.790;7.322;2023-05-16T13:00:11;98981.94;;;13.63;90.27
13241;BME280;6687;47.790;7.322;2023-05-16T13:02:39;98978.88;;;13.16;90.59
13241;BME280;6687;47.790;7.322;2023-05-16T13:05:07;98984.00;;;13.22;90.38
13241;BME280;6687;47.790;7.322;2023-05-16T13:07:34;98982.38;;;13.09;91.03
13241;BME280;6687;47.790;7.322;2023-05-16T13:10:01;98982.44;;;13.03;89.66
13241;BME280;6687;47.790;7.322;2023-05-16T13:12:29;98979.97;;;12.83;89.11
13241;BME280;6687;47.790;7.322;2023-05-16T13:14:55;98980.81;;;12.86;89.34
13241;BME280;6687;47.790;7.322;2023-05-16T13:17:22;98988.44;;;13.12;87.62
13241;BME280;6687;47.790;7.322;2023-05-16T13:19:50;98987.94;;;13.69;87.27
13241;BME280;6687;47.790;7.322;2023-05-16T13:22:17;98990.97;;;13.23;86.76
13241;BME280;6687;47.790;7.322;2023-05-16T13:24:44;98994.97;;;13.61;84.59
13241;BME280;6687;47.790;7.322;2023-05-16T13:27:11;98996.59;;;13.73;85.00
13241;BME280;6687;47.790;7.322;2023-05-16T13:29:37;98999.41;;;13.53;84.12
13241;BME280;6687;47.790;7.322;2023-05-16T13:32:05;98995.56;;;13.88;83.47
13241;BME280;6687;47.790;7.322;2023-05-16T13:34:32;99005.97;;;13.91;82.18
13241;BME280;6687;47.790;7.322;2023-05-16T13:37:02;99000.84;;;13.82;82.93
13241;BME280;6687;47.790;7.322;2023-05-16T13:39:29;99003.22;;;14.00;80.54
13241;BME280;6687;47.790;7.322;2023-05-16T13:41:56;99002.53;;;14.56;81.23
13241;BME280;6687;47.790;7.322;2023-05-16T13:44:24;99002.19;;;14.17;81.65
13241;BME280;6687;47.790;7.322;2023-05-16T13:46:51;99007.56;;;14.01;80.17
13241;BME280;6687;47.790;7.322;2023-05-16T13:49:18;99003.31;;;13.94;79.95
13241;BME280;6687;47.790;7.322;2023-05-16T13:51:45;99004.03;;;14.05;80.18
13241;BME280;6687;47.790;7.322;2023-05-16T13:54:14;99003.41;;;14.58;79.46
13241;BME280;6687;47.790;7.322;2023-05-16T13:56:41;99014.25;;;14.24;76.14
13241;BME280;6687;47.790;7.322;2023-05-16T13:59:08;99015.81;;;14.37;77.96
13241;BME280;6687;47.790;7.322;2023-05-16T14:01:34;99015.16;;;14.21;75.06
13241;BME280;6687;47.790;7.322;2023-05-16T14:04:02;99023.28;;;13.95;75.57
13241;BME280;6687;47.790;7.322;2023-05-16T14:06:28;99016.00;;;14.22;75.51
13241;BME280;6687;47.790;7.322;2023-05-16T14:08:55;99029.03;;;13.37;76.39
13241;BME280;6687;47.790;7.322;2023-05-16T14:11:23;99037.47;;;13.63;79.25
13241;BME280;6687;47.790;7.322;2023-05-16T14:13:51;99043.53;;;13.67;77.26
13241;BME280;6687;47.790;7.322;2023-05-16T14:16:18;99037.72;;;13.32;75.83
13241;BME280;6687;47.790;7.322;2023-05-16T14:18:45;99035.00;;;13.51;76.27
13241;BME280;6687;47.790;7.322;2023-05-16T14:21:12;99035.91;;;13.44;76.42
13241;BME280;6687;47.790;7.322;2023-05-16T14:23:39;99044.25;;;13.80;76.16
13241;BME280;6687;47.790;7.322;2023-05-16T14:26:06;99033.47;;;14.13;78.05
13241;BME280;6687;47.790;7.322;2023-05-16T14:28:35;99039.00;;;13.86;74.06
13241;BME280;6687;47.790;7.322;2023-05-16T14:31:01;99041.13;;;13.44;74.49
13241;BME280;6687;47.790;7.322;2023-05-16T14:33:28;99047.28;;;13.33;74.01
13241;BME280;6687;47.790;7.322;2023-05-16T14:35:55;99052.00;;;13.86;75.31
13241;BME280;6687;47.790;7.322;2023-05-16T14:38:22;99051.84;;;12.98;73.65
13241;BME280;6687;47.790;7.322;2023-05-16T14:40:49;99050.63;;;13.45;75.01
13241;BME280;6687;47.790;7.322;2023-05-16T14:43:15;99056.25;;;13.96;73.84
13241;BME280;6687;47.790;7.322;2023-05-16T14:45:44;99057.34;;;13.75;73.00
13241;BME280;6687;47.790;7.322;2023-05-16T14:48:10;99059.91;;;13.77;73.04
13241;BME280;6687;47.790;7.322;2023-05-16T14:50:37;99070.66;;;13.40;73.27
13241;BME280;6687;47.790;7.322;2023-05-16T14:53:04;99064.31;;;13.70;75.23
13241;BME280;6687;47.790;7.322;2023-05-16T14:55:30;99071.59;;;13.29;73.65
13241;BME280;6687;47.790;7.322;2023-05-16T14:57:57;99067.81;;;13.66;73.79
13241;BME280;6687;47.790;7.322;2023-05-16T15:00:24;99066.69;;;12.79;73.89
13241;BME280;6687;47.790;7.322;2023-05-16T15:02:52;99072.59;;;13.01;74.16
13241;BME280;6687;47.790;7.322;2023-05-16T15:05:19;99070.13;;;12.82;76.69
13241;BME280;6687;47.790;7.322;2023-05-16T15:07:46;99074.16;;;13.36;74.86
13241;BME280;6687;47.790;7.322;2023-05-16T15:10:12;99074.44;;;12.86;74.90
13241;BME280;6687;47.790;7.322;2023-05-16T15:12:39;99075.94;;;13.24;73.25
13241;BME280;6687;47.790;7.322;2023-05-16T15:15:08;99070.97;;;12.87;74.80
13241;BME280;6687;47.790;7.322;2023-05-16T15:17:35;99082.41;;;12.56;74.60
13241;BME280;6687;47.790;7.322;2023-05-16T15:20:05;99074.41;;;12.92;73.95
13241;BME280;6687;47.790;7.322;2023-05-16T15:22:32;99074.44;;;12.89;75.81
13241;BME280;6687;47.790;7.322;2023-05-16T15:24:59;99082.28;;;12.80;74.72
13241;BME280;6687;47.790;7.322;2023-05-16T15:27:26;99075.97;;;13.17;75.67
13241;BME280;6687;47.790;7.322;2023-05-16T15:29:53;99074.50;;;12.74;74.65
13241;BME280;6687;47.790;7.322;2023-05-16T15:32:20;99075.34;;;12.79;73.88
13241;BME280;6687;47.790;7.322;2023-05-16T15:34:48;99081.34;;;12.90;75.04
13241;BME280;6687;47.790;7.322;2023-05-16T15:37:16;99083.34;;;12.27;74.17
13241;BME280;6687;47.790;7.322;2023-05-16T15:39:43;99081.47;;;12.61;74.48
13241;BME280;6687;47.790;7.322;2023-05-16T15:42:09;99086.75;;;12.41;73.85
13241;BME280;6687;47.790;7.322;2023-05-16T15:44:37;99095.38;;;12.62;73.96
13241;BME280;6687;47.790;7.322;2023-05-16T15:47:04;99089.38;;;12.37;74.10
13241;BME280;6687;47.790;7.322;2023-05-16T15:49:31;99093.72;;;12.36;74.08
13241;BME280;6687;47.790;7.322;2023-05-16T15:51:58;99094.53;;;12.52;73.87
13241;BME280;6687;47.790;7.322;2023-05-16T15:54:26;99097.19;;;12.35;73.53
13241;BME280;6687;47.790;7.322;2023-05-16T15:56:53;99100.31;;;13.08;72.79
13241;BME280;6687;47.790;7.322;2023-05-16T15:59:20;99099.75;;;12.41;73.06
13241;BME280;6687;47.790;7.322;2023-05-16T16:01:47;99095.41;;;12.56;71.59
13241;BME280;6687;47.790;7.322;2023-05-16T16:04:13;99104.97;;;12.37;71.96
13241;BME280;6687;47.790;7.322;2023-05-16T16:06:40;99105.81;;;12.46;71.84
13241;BME280;6687;47.790;7.322;2023-05-16T16:09:07;99100.69;;;12.25;72.15
13241;BME280;6687;47.790;7.322;2023-05-16T16:11:35;99115.38;;;12.38;69.67
13241;BME280;6687;47.790;7.322;2023-05-16T16:14:02;99097.09;;;12.66;72.51
13241;BME280;6687;47.790;7.322;2023-05-16T16:16:29;99104.19;;;12.08;68.93
13241;BME280;6687;47.790;7.322;2023-05-16T16:18:55;99110.25;;;12.06;68.98
13241;BME280;6687;47.790;7.322;2023-05-16T16:21:22;99109.25;;;12.54;67.96
13241;BME280;6687;47.790;7.322;2023-05-16T16:23:49;99104.97;;;12.44;68.94
13241;BME280;6687;47.790;7.322;2023-05-16T16:26:15;99114.56;;;12.11;68.91
13241;BME280;6687;47.790;7.322;2023-05-16T16:28:44;99116.31;;;12.16;68.95
13241;BME280;6687;47.790;7.322;2023-05-16T16:31:10;99115.44;;;12.17;68.00
13241;BME280;6687;47.790;7.322;2023-05-16T16:33:37;99113.69;;;12.09;67.68
13241;BME280;6687;47.790;7.322;2023-05-16T16:36:04;99119.78;;;11.81;68.72
13241;BME280;6687;47.790;7.322;2023-05-16T16:38:31;99124.94;;;12.21;68.66
13241;BME280;6687;47.790;7.322;2023-05-16T16:40:58;99119.63;;;12.65;68.48
13241;BME280;6687;47.790;7.322;2023-05-16T16:43:25;99117.97;;;12.35;68.23
13241;BME280;6687;47.790;7.322;2023-05-16T16:45:53;99115.41;;;12.33;67.84
13241;BME280;6687;47.790;7.322;2023-05-16T16:48:19;99111.91;;;12.33;68.32
13241;BME280;6687;47.790;7.322;2023-05-16T16:50:46;99105.75;;;12.59;66.19
13241;BME280;6687;47.790;7.322;2023-05-16T16:53:13;99116.19;;;12.54;67.44
13241;BME280;6687;47.790;7.322;2023-05-16T16:55:40;99109.94;;;12.89;68.72
13241;BME280;6687;47.790;7.322;2023-05-16T16:58:06;99114.19;;;13.10;66.07
13241;BME280;6687;47.790;7.322;2023-05-16T17:00:33;99123.06;;;12.69;65.81
13241;BME280;6687;47.790;7.322;2023-05-16T17:03:01;99119.63;;;12.61;65.29
13241;BME280;6687;47.790;7.322;2023-05-16T17:05:29;99118.84;;;12.32;65.79
13241;BME280;6687;47.790;7.322;2023-05-16T17:07:55;99118.66;;;12.86;67.68
13241;BME280;6687;47.790;7.322;2023-05-16T17:10:22;99127.38;;;12.67;65.31
13241;BME280;6687;47.790;7.322;2023-05-16T17:12:49;99117.88;;;12.63;66.45
13241;BME280;6687;47.790;7.322;2023-05-16T17:15:16;99129.06;;;12.83;65.21
13241;BME280;6687;47.790;7.322;2023-05-16T17:17:43;99129.19;;;12.51;65.64
13241;BME280;6687;47.790;7.322;2023-05-16T17:20:11;99128.22;;;12.75;66.26
13241;BME280;6687;47.790;7.322;2023-05-16T17:22:38;99130.06;;;12.51;66.03
13241;BME280;6687;47.790;7.322;2023-05-16T17:25:06;99122.22;;;12.59;68.04
13241;BME280;6687;47.790;7.322;2023-05-16T17:27:34;99124.88;;;12.42;66.39
13241;BME280;6687;47.790;7.322;2023-05-16T17:30:01;99130.00;;;12.59;66.46
13241;BME280;6687;47.790;7.322;2023-05-16T17:32:28;99132.56;;;12.73;67.73
13241;BME280;6687;47.790;7.322;2023-05-16T17:34:55;99125.75;;;12.43;66.52
13241;BME280;6687;47.790;7.322;2023-05-16T17:37:26;99138.78;;;12.32;67.59
13241;BME280;6687;47.790;7.322;2023-05-16T17:39:53;99140.34;;;12.82;66.34
13241;BME280;6687;47.790;7.322;2023-05-16T17:42:19;99138.78;;;12.23;67.43
13241;BME280;6687;47.790;7.322;2023-05-16T17:44:46;99136.06;;;12.72;67.21
13241;BME280;6687;47.790;7.322;2023-05-16T17:47:13;99137.84;;;12.56;66.85
13241;BME280;6687;47.790;7.322;2023-05-16T17:49:40;99137.03;;;12.39;67.97
13241;BME280;6687;47.790;7.322;2023-05-16T17:52:07;99138.69;;;12.60;66.82
13241;BME280;6687;47.790;7.322;2023-05-16T17:54:35;99149.16;;;12.29;67.78
13241;BME280;6687;47.790;7.322;2023-05-16T17:57:02;99149.16;;;12.29;67.94
13241;BME280;6687;47.790;7.322;2023-05-16T17:59:31;99146.47;;;12.61;68.04
13241;BME280;6687;47.790;7.322;2023-05-16T18:01:57;99143.06;;;12.47;67.38
13241;BME280;6687;47.790;7.322;2023-05-16T18:04:24;99146.44;;;12.73;67.40
13241;BME280;6687;47.790;7.322;2023-05-16T18:06:51;99137.00;;;12.43;67.54
13241;BME280;6687;47.790;7.322;2023-05-16T18:09:19;99152.59;;;12.56;67.20
13241;BME280;6687;47.790;7.322;2023-05-16T18:11:47;99148.22;;;12.64;66.95
13241;BME280;6687;47.790;7.322;2023-05-16T18:14:14;99149.03;;;12.80;66.61
13241;BME280;6687;47.790;7.322;2023-05-16T18:16:42;99152.56;;;12.62;66.90
13241;BME280;6687;47.790;7.322;2023-05-16T18:19:09;99151.66;;;12.72;66.98
13241;BME280;6687;47.790;7.322;2023-05-16T18:21:36;99155.25;;;12.28;66.77
13241;BME280;6687;47.790;7.322;2023-05-16T18:24:04;99149.13;;;12.53;66.17
13241;BME280;6687;47.790;7.322;2023-05-16T18:26:32;99153.47;;;12.41;66.91
13241;BME280;6687;47.790;7.322;2023-05-16T18:29:00;99152.59;;;12.46;66.99
13241;BME280;6687;47.790;7.322;2023-05-16T18:31:28;99155.94;;;12.84;65.70
13241;BME280;6687;47.790;7.322;2023-05-16T18:33:58;99162.13;;;12.35;66.54